Time;durP1;ratioP1;P1;durP2;ratioP2;P2;SDS_P1;SDS_P2;PMS_P1;PMS_P2;Temp;Humidity;BMP_temperature;BMP_pressure;BME280_temperature;BME280_humidity;BME280_pressure;Samples;Min_cycle;Max_cycle;Signal;HPM_P1;HPM_P2
2023/09/28 00:01:46;;;;;;;3.53;1.67;;;;;;;26.94;46.83;101319.13;5023739;28;20057;-70
2023/09/28 00:04:11;;;;;;;4.80;2.15;;;;;;;27.30;46.40;101320.09;5027999;28;20124;-70
2023/09/28 00:06:37;;;;;;;11.60;1.92;;;;;;;26.90;46.91;101324.72;5031431;28;20059;-70
2023/09/28 00:09:03;;;;;;;2.42;1.85;;;;;;;26.85;46.88;101326.00;5025217;28;20045;-70
2023/09/28 00:11:29;;;;;;;2.45;1.70;;;;;;;26.99;46.59;101327.69;5018071;28;20071;-70
2023/09/28 00:13:54;;;;;;;4.75;2.30;;;;;;;25.85;49.61;101325.66;5028746;28;20053;-70
2023/09/28 00:16:20;;;;;;;3.55;1.88;;;;;;;26.12;48.85;101328.31;5013706;28;20029;-70
2023/09/28 00:18:46;;;;;;;4.90;1.80;;;;;;;26.41;48.05;101322.78;5027564;28;20371;-70
2023/09/28 00:21:11;;;;;;;3.30;2.08;;;;;;;26.36;48.53;101319.53;5025335;28;20036;-70
2023/09/28 00:23:37;;;;;;;2.72;1.80;;;;;;;27.21;46.78;101322.47;5014624;28;20120;-70
2023/09/28 00:26:02;;;;;;;6.63;2.03;;;;;;;26.21;48.75;101325.03;5009117;28;20422;-70
2023/09/28 00:28:28;;;;;;;2.83;1.90;;;;;;;26.40;48.70;101321.06;5018287;28;20496;-70
2023/09/28 00:30:54;;;;;;;3.22;1.77;;;;;;;26.15;49.73;101328.09;5029773;28;20045;-70
2023/09/28 00:33:19;;;;;;;4.78;2.42;;;;;;;27.24;46.70;101330.31;5030306;28;20112;-70
2023/09/28 00:35:44;;;;;;;3.13;2.05;;;;;;;25.93;49.87;101333.19;5028571;28;20032;-70
2023/09/28 00:38:10;;;;;;;4.85;2.13;;;;;;;25.94;50.17;101342.91;5010503;28;20305;-70
2023/09/28 00:40:39;;;;;;;3.50;1.83;;;;;;;25.94;50.60;101335.75;5027094;28;20456;-70
2023/09/28 00:43:05;;;;;;;2.65;2.03;;;;;;;25.89;51.00;101341.38;5004406;28;20494;-71
2023/09/28 00:45:31;;;;;;;2.38;1.95;;;;;;;25.88;50.81;101337.03;5023993;28;20033;-70
2023/09/28 00:48:02;;;;;;;5.18;2.30;;;;;;;27.35;47.56;101339.41;5027457;28;20036;-71
2023/09/28 00:50:31;;;;;;;3.55;2.17;;;;;;;26.87;49.16;101340.16;5026003;28;20430;-70
2023/09/28 00:52:59;;;;;;;3.88;2.28;;;;;;;26.33;49.67;101341.22;5015374;28;20470;-72
2023/09/28 00:55:25;;;;;;;8.32;2.95;;;;;;;26.09;50.61;101344.59;5028169;28;20056;-70
2023/09/28 00:57:52;;;;;;;5.95;2.45;;;;;;;26.07;50.97;101351.88;5012765;28;20482;-70
2023/09/28 01:00:18;;;;;;;4.50;2.10;;;;;;;26.69;48.69;101347.63;5028975;28;20033;-70
2023/09/28 01:02:51;;;;;;;2.70;1.95;;;;;;;26.70;49.40;101338.66;5025893;28;20039;-70
2023/09/28 01:05:20;;;;;;;2.40;1.85;;;;;;;25.69;51.54;101358.78;5013068;28;20036;-70
2023/09/28 01:07:46;;;;;;;3.85;2.20;;;;;;;26.04;51.64;101363.63;5011336;28;20029;-71
2023/09/28 01:10:22;;;;;;;6.22;2.42;;;;;;;26.17;50.40;101363.69;5029945;28;20401;-71
2023/09/28 01:12:48;;;;;;;2.22;2.03;;;;;;;26.46;50.82;101360.84;5024094;28;20059;-70
2023/09/28 01:15:14;;;;;;;5.95;2.67;;;;;;;25.38;53.37;101365.28;5023690;28;20021;-70
2023/09/28 01:17:40;;;;;;;5.20;3.17;;;;;;;26.12;51.34;101360.47;5008082;28;20021;-70
2023/09/28 01:20:17;;;;;;;8.25;2.38;;;;;;;25.65;52.92;101368.00;5008487;28;20026;-70
2023/09/28 01:22:43;;;;;;;7.07;2.83;;;;;;;25.45;53.78;101363.91;5025965;28;20021;-70
2023/09/28 01:25:09;;;;;;;3.78;2.35;;;;;;;26.83;50.04;101369.03;5010364;28;20389;-70
2023/09/28 01:27:35;;;;;;;5.03;3.08;;;;;;;26.77;50.38;101369.44;5027960;28;20033;-70
2023/09/28 01:30:03;;;;;;;3.22;2.30;;;;;;;26.17;51.15;101368.16;5024115;28;20037;-70
2023/09/28 01:32:29;;;;;;;4.03;2.25;;;;;;;25.73;52.90;101373.69;5008775;28;20037;-70
2023/09/28 01:34:54;;;;;;;3.55;2.20;;;;;;;25.80;52.32;101371.47;5011794;28;20091;-70
2023/09/28 01:37:23;;;;;;;2.90;2.03;;;;;;;26.38;51.62;101356.00;5027812;28;20032;-70
2023/09/28 01:39:49;;;;;;;5.05;2.53;;;;;;;26.41;51.47;101354.94;5011118;28;20036;-70
2023/09/28 01:42:14;;;;;;;4.13;2.70;;;;;;;25.12;54.95;101365.09;5026018;28;20415;-70
2023/09/28 01:44:40;;;;;;;5.07;2.70;;;;;;;25.63;54.23;101359.19;5027567;28;20413;-70
2023/09/28 01:47:06;;;;;;;7.40;2.25;;;;;;;25.66;53.92;101364.31;5029372;28;20136;-69
2023/09/28 01:49:31;;;;;;;9.18;3.05;;;;;;;25.63;53.94;101377.06;5011576;28;20565;-71
2023/09/28 01:51:56;;;;;;;5.28;2.78;;;;;;;26.49;51.80;101379.38;5008944;28;20553;-70
2023/09/28 01:54:22;;;;;;;5.43;2.65;;;;;;;25.71;52.91;101377.44;5023587;28;20477;-70
2023/09/28 01:56:47;;;;;;;9.68;2.40;;;;;;;26.26;52.02;101382.78;5025907;28;20037;-70
2023/09/28 01:59:14;;;;;;;3.15;2.03;;;;;;;26.27;51.22;101385.34;5028758;28;20025;-70
2023/09/28 02:01:40;;;;;;;5.18;2.10;;;;;;;24.99;54.61;101394.41;5009050;28;20084;-70
2023/09/28 02:04:05;;;;;;;4.25;2.00;;;;;;;25.60;53.88;101390.66;5026276;28;20029;-70
2023/09/28 02:06:31;;;;;;;3.78;1.92;;;;;;;25.38;54.08;101402.75;5010676;28;20024;-70
2023/09/28 02:08:57;;;;;;;4.60;2.33;;;;;;;25.70;52.43;101397.13;5008838;28;20055;-69
2023/09/28 02:11:22;;;;;;;4.60;2.25;;;;;;;25.68;52.33;101409.75;5007780;28;20022;-71
2023/09/28 02:13:47;;;;;;;5.03;1.75;;;;;;;24.54;55.20;101402.44;5011336;28;20021;-69
2023/09/28 02:16:13;;;;;;;3.00;1.80;;;;;;;24.60;54.80;101395.03;5020140;28;20034;-70
2023/09/28 02:18:42;;;;;;;2.78;1.98;;;;;;;25.96;52.16;101397.22;5021782;28;20026;-70
2023/09/28 02:21:12;;;;;;;4.72;1.63;;;;;;;26.08;51.59;101385.72;5010509;28;20109;-70
2023/09/28 02:23:38;;;;;;;9.82;3.00;;;;;;;25.27;52.19;101389.16;5010805;28;20509;-70
2023/09/28 02:26:07;;;;;;;2.90;1.52;;;;;;;25.94;51.55;101377.72;5026817;28;20100;-70
2023/09/28 02:28:33;;;;;;;3.97;1.40;;;;;;;25.16;53.28;101397.84;5008944;28;20489;-70
2023/09/28 02:31:08;;;;;;;6.78;1.65;;;;;;;25.40;51.84;101390.09;5027902;28;20032;-70
2023/09/28 02:33:34;;;;;;;2.40;1.52;;;;;;;24.76;52.97;101379.81;5027024;28;20037;-70
2023/09/28 02:36:00;;;;;;;7.07;1.83;;;;;;;24.28;54.17;101390.66;5024271;28;20057;-70
2023/09/28 02:38:25;;;;;;;3.88;1.42;;;;;;;25.44;51.51;101386.28;5003542;28;20191;-70
2023/09/28 02:40:51;;;;;;;6.60;1.92;;;;;;;25.50;50.88;101391.25;5008585;28;20052;-70
2023/09/28 02:43:17;;;;;;;4.43;1.42;;;;;;;25.56;50.49;101380.13;5026362;28;20033;-70
2023/09/28 02:45:42;;;;;;;2.97;1.20;;;;;;;24.45;53.55;101392.31;5026265;28;20029;-70
2023/09/28 02:48:08;;;;;;;4.97;1.63;;;;;;;24.77;52.77;101392.22;5009496;28;20099;-70
2023/09/28 02:50:34;;;;;;;8.85;1.42;;;;;;;25.63;50.25;101396.66;5023231;28;20036;-71
2023/09/28 02:52:59;;;;;;;4.30;1.25;;;;;;;25.75;49.94;101400.34;5024036;28;20032;-70
2023/09/28 02:55:25;;;;;;;3.05;0.93;;;;;;;25.01;51.78;101410.38;5031968;28;20029;-70
2023/09/28 02:57:51;;;;;;;7.40;1.58;;;;;;;25.76;49.57;101404.75;5008160;28;20113;-70
2023/09/28 03:02:49;;;;;;;7.38;1.60;;;;;;;25.53;50.44;101412.44;5014142;28;20033;-70
2023/09/28 03:05:18;;;;;;;7.05;1.92;;;;;;;24.38;53.69;101428.34;5000604;28;20040;-70
2023/09/28 03:07:47;;;;;;;5.15;1.20;;;;;;;25.88;50.19;101421.81;5029803;28;20029;-70
2023/09/28 03:10:13;;;;;;;3.15;1.20;;;;;;;25.28;51.04;101428.31;5028216;28;20029;-69
2023/09/28 03:12:39;;;;;;;6.70;1.20;;;;;;;24.71;51.39;101440.69;5021974;28;20017;-70
2023/09/28 03:15:07;;;;;;;11.95;2.25;;;;;;;25.01;50.75;101447.81;5030880;28;20029;-69
2023/09/28 03:17:34;;;;;;;3.03;0.88;;;;;;;24.02;53.18;101453.56;5009807;28;20025;-70
2023/09/28 03:20:00;;;;;;;10.10;2.53;;;;;;;25.29;49.46;101457.63;5027696;28;20095;-70
2023/09/28 03:22:25;;;;;;;7.75;1.90;;;;;;;25.71;48.20;101457.72;5013031;28;20424;-70
2023/09/28 03:24:51;;;;;;;7.50;1.50;;;;;;;25.44;48.56;101466.53;5032016;28;20167;-70
2023/09/28 03:27:17;;;;;;;4.93;0.93;;;;;;;25.07;49.30;101468.81;5019281;28;20075;-70
2023/09/28 03:29:43;;;;;;;3.50;1.27;;;;;;;24.94;49.90;101473.19;5024664;28;20029;-70
2023/09/28 03:32:08;;;;;;;7.57;1.30;;;;;;;24.92;49.87;101464.41;5030549;28;20300;-70
2023/09/28 03:34:34;;;;;;;6.30;1.13;;;;;;;24.51;50.53;101481.91;5007261;28;20032;-69
2023/09/28 03:37:00;;;;;;;9.05;1.02;;;;;;;23.51;53.15;101491.91;5013192;28;20025;-70
2023/09/28 03:39:26;;;;;;;18.02;1.83;;;;;;;23.97;51.80;101487.69;5011419;28;20565;-69
2023/09/28 03:41:51;;;;;;;11.77;1.60;;;;;;;24.53;51.50;101486.22;5028362;28;20159;-70
2023/09/28 03:44:17;;;;;;;13.60;2.17;;;;;;;24.05;52.47;101480.09;5011641;28;20477;-69
2023/09/28 03:46:42;;;;;;;15.35;1.50;;;;;;;23.60;53.34;101479.88;5030276;28;20481;-70
2023/09/28 03:49:07;;;;;;;7.85;2.35;;;;;;;23.67;52.82;101477.72;5029352;28;20087;-72
2023/09/28 03:51:33;;;;;;;11.05;2.00;;;;;;;24.37;51.00;101480.06;5031477;28;20476;-72
2023/09/28 03:53:58;;;;;;;12.82;1.73;;;;;;;24.59;50.21;101484.13;5025840;28;20481;-69
2023/09/28 03:56:24;;;;;;;13.48;1.52;;;;;;;23.60;53.10;101484.34;5008654;28;20040;-69
2023/09/28 03:58:49;;;;;;;9.50;1.50;;;;;;;25.08;49.66;101486.56;5012217;28;20017;-70
2023/09/28 04:01:15;;;;;;;3.25;0.90;;;;;;;24.40;51.19;101501.25;5031651;28;20594;-69
2023/09/28 04:03:41;;;;;;;11.93;1.48;;;;;;;24.42;51.58;101504.69;5028733;28;20115;-70
2023/09/28 04:06:06;;;;;;;10.60;2.05;;;;;;;24.51;50.54;101501.50;5013650;28;20029;-69
2023/09/28 04:08:32;;;;;;;8.32;2.15;;;;;;;25.24;49.68;101492.69;5013844;28;20485;-69
2023/09/28 04:10:57;;;;;;;10.73;1.88;;;;;;;24.34;51.50;101505.13;5023631;28;20482;-70
2023/09/28 04:13:22;;;;;;;12.40;2.20;;;;;;;24.51;50.61;101504.16;5028771;28;20505;-70
2023/09/28 04:15:49;;;;;;;7.55;1.67;;;;;;;23.99;53.44;101501.81;5024564;28;20469;-69
2023/09/28 04:18:14;;;;;;;7.43;1.42;;;;;;;24.02;52.60;101505.16;5026121;28;20051;-70
2023/09/28 04:20:41;;;;;;;11.38;2.25;;;;;;;24.36;51.32;101511.25;5010578;28;20180;-70
2023/09/28 04:23:08;;;;;;;10.20;1.40;;;;;;;24.80;50.40;101525.69;5010517;28;20060;-70
2023/09/28 04:25:35;;;;;;;11.65;1.65;;;;;;;24.05;52.03;101522.81;5008018;28;20029;-70
2023/09/28 04:28:01;;;;;;;9.48;1.38;;;;;;;24.30;51.38;101526.78;5016707;28;20034;-70
2023/09/28 04:30:27;;;;;;;11.25;2.00;;;;;;;24.63;50.79;101513.28;5005766;28;20033;-71
2023/09/28 04:32:54;;;;;;;11.98;1.50;;;;;;;25.05;49.90;101524.22;5024388;28;20032;-70
2023/09/28 04:35:20;;;;;;;10.30;1.70;;;;;;;25.29;48.70;101526.34;5008584;28;20383;-71
2023/09/28 04:37:47;;;;;;;9.38;1.88;;;;;;;23.60;53.28;101538.56;5020983;28;20043;-71
2023/09/28 04:40:13;;;;;;;11.05;1.52;;;;;;;23.82;53.50;101551.63;5024560;28;20073;-71
2023/09/28 04:42:39;;;;;;;12.65;1.40;;;;;;;24.24;52.12;101548.50;5023359;28;20064;-71
2023/09/28 04:45:05;;;;;;;9.85;2.03;;;;;;;24.91;50.98;101546.44;5027339;28;20477;-71
2023/09/28 04:47:32;;;;;;;8.98;1.35;;;;;;;25.26;49.43;101537.22;5011260;28;20029;-71
2023/09/28 04:49:57;;;;;;;11.23;1.50;;;;;;;24.59;50.57;101537.59;5029808;28;20018;-71
2023/09/28 04:52:23;;;;;;;16.45;2.88;;;;;;;23.63;53.07;101537.53;5029784;28;20246;-71
2023/09/28 04:54:50;;;;;;;13.60;1.58;;;;;;;25.07;49.78;101538.31;5009901;28;20048;-72
2023/09/28 04:57:15;;;;;;;16.38;1.95;;;;;;;24.88;49.70;101542.13;5011941;28;20037;-71
2023/09/28 04:59:41;;;;;;;9.32;1.48;;;;;;;23.93;53.21;101542.19;5011476;28;20018;-72
2023/09/28 05:02:08;;;;;;;11.95;2.05;;;;;;;23.44;54.15;101551.00;5025991;28;20029;-71
2023/09/28 05:04:33;;;;;;;14.88;1.80;;;;;;;23.80;53.34;101556.16;5017924;28;20084;-72
2023/09/28 05:06:59;;;;;;;15.60;1.35;;;;;;;23.08;54.91;101552.84;5017250;28;20441;-71
2023/09/28 05:09:26;;;;;;;16.77;2.15;;;;;;;23.19;54.16;101565.63;5011732;28;20543;-70
2023/09/28 05:11:53;;;;;;;9.73;1.35;;;;;;;24.12;52.77;101560.72;5028645;28;20029;-72
2023/09/28 05:14:23;;;;;;;14.00;2.03;;;;;;;24.11;52.78;101562.53;5010419;28;20029;-72
2023/09/28 05:16:49;;;;;;;20.25;2.17;;;;;;;23.36;55.12;101562.09;5028153;28;20048;-71
2023/09/28 05:19:14;;;;;;;17.60;2.30;;;;;;;24.24;52.01;101553.84;5023268;28;20033;-71
2023/09/28 05:21:40;;;;;;;14.00;2.50;;;;;;;23.91;52.45;101558.28;5025497;28;20516;-72
2023/09/28 05:24:06;;;;;;;13.13;1.50;;;;;;;23.86;53.21;101561.19;5026361;28;20409;-72
2023/09/28 05:26:32;;;;;;;9.57;1.23;;;;;;;23.09;55.92;101559.88;5030354;28;20029;-71
2023/09/28 05:28:58;;;;;;;11.90;1.88;;;;;;;23.46;54.49;101563.31;5006001;28;20497;-71
2023/09/28 05:31:23;;;;;;;11.23;1.50;;;;;;;24.10;52.51;101563.47;5026375;28;20120;-72
2023/09/28 05:33:50;;;;;;;17.92;1.63;;;;;;;24.50;51.11;101561.22;5012886;28;20458;-72
2023/09/28 05:36:15;;;;;;;21.08;1.92;;;;;;;23.81;52.09;101563.25;5022684;28;20038;-72
2023/09/28 05:38:41;;;;;;;16.02;1.90;;;;;;;24.29;51.22;101565.09;5003781;28;20401;-72
2023/09/28 05:41:07;;;;;;;13.00;2.10;;;;;;;22.76;54.52;101573.97;5027295;28;20036;-72
2023/09/28 05:43:32;;;;;;;17.98;2.45;;;;;;;22.96;55.89;101580.13;5027820;28;20036;-72
2023/09/28 05:45:57;;;;;;;13.32;1.20;;;;;;;22.63;56.24;101588.84;5010458;28;20489;-72
2023/09/28 05:48:24;;;;;;;18.13;2.30;;;;;;;23.28;55.08;101588.31;5010952;28;20033;-71
2023/09/28 05:50:49;;;;;;;14.88;1.73;;;;;;;23.15;55.34;101575.59;5004797;28;20052;-72
2023/09/28 05:53:15;;;;;;;12.80;1.88;;;;;;;22.46;56.46;101571.88;5027772;28;20476;-71
2023/09/28 05:55:40;;;;;;;14.38;1.55;;;;;;;22.77;56.03;101591.69;5023612;28;20502;-72
2023/09/28 05:58:06;;;;;;;11.70;1.30;;;;;;;23.67;53.59;101581.78;5011018;28;20033;-71
2023/09/28 06:00:31;;;;;;;13.68;1.67;;;;;;;23.29;54.59;101585.53;5026890;28;20022;-71
2023/09/28 06:02:57;;;;;;;11.95;1.52;;;;;;;23.83;52.92;101582.69;5026397;28;20022;-71
2023/09/28 06:05:23;;;;;;;13.75;1.67;;;;;;;23.38;54.40;101586.88;5028039;28;20026;-71
2023/09/28 06:07:48;;;;;;;13.68;2.13;;;;;;;23.03;55.13;101592.19;5010367;28;20075;-71
2023/09/28 06:10:14;;;;;;;14.15;2.03;;;;;;;22.88;56.13;101594.66;5008521;28;20407;-71
2023/09/28 06:12:39;;;;;;;9.32;1.95;;;;;;;23.35;54.07;101606.56;5006348;28;20056;-71
2023/09/28 06:15:07;;;;;;;8.73;1.75;;;;;;;23.77;53.57;101607.06;5013544;28;20120;-71
2023/09/28 06:17:33;;;;;;;10.73;1.55;;;;;;;23.11;54.88;101613.09;5027316;28;20377;-71
2023/09/28 06:19:58;;;;;;;7.43;1.40;;;;;;;24.15;52.27;101609.50;5008109;28;20021;-71
2023/09/28 06:22:24;;;;;;;6.07;1.83;;;;;;;22.45;56.58;101602.13;5027490;28;20026;-71
2023/09/28 06:24:49;;;;;;;7.35;1.95;;;;;;;22.52;56.99;101603.53;5028161;28;20045;-71
2023/09/28 06:27:15;;;;;;;13.02;1.88;;;;;;;23.22;55.55;101602.81;5011681;28;20112;-71
2023/09/28 06:29:40;;;;;;;14.55;2.28;;;;;;;23.96;52.90;101614.09;5026321;28;20483;-71
2023/09/28 06:32:06;;;;;;;18.00;1.67;;;;;;;23.65;54.61;101615.72;5018103;28;20029;-71
2023/09/28 06:34:31;;;;;;;11.48;2.38;;;;;;;23.93;53.27;101630.28;5029817;28;20029;-71
2023/09/28 06:36:56;;;;;;;10.98;1.95;;;;;;;23.71;54.39;101636.72;5029464;28;20032;-71
2023/09/28 06:39:22;;;;;;;15.45;2.33;;;;;;;23.58;54.40;101635.66;5026128;28;20435;-71
2023/09/28 06:41:48;;;;;;;16.15;2.50;;;;;;;24.32;51.81;101637.06;5010872;28;20441;-71
2023/09/28 06:44:13;;;;;;;15.30;2.08;;;;;;;23.68;54.38;101647.56;5029117;28;20021;-71
2023/09/28 06:46:38;;;;;;;13.32;2.15;;;;;;;24.09;52.90;101657.88;5025305;28;20445;-71
2023/09/28 06:49:06;;;;;;;12.48;1.55;;;;;;;22.93;55.97;101660.22;5009908;28;20029;-70
2023/09/28 06:51:32;;;;;;;5.43;1.55;;;;;;;23.29;55.34;101656.69;5028241;28;20052;-71
2023/09/28 06:53:59;;;;;;;10.02;1.73;;;;;;;23.87;53.80;101659.00;5028426;28;20389;-71
2023/09/28 06:56:24;;;;;;;16.05;1.67;;;;;;;23.30;54.74;101653.97;5026225;28;20497;-71
2023/09/28 06:58:52;;;;;;;12.93;2.60;;;;;;;24.34;52.43;101645.84;5010394;28;20064;-71
2023/09/28 07:01:17;;;;;;;9.18;1.23;;;;;;;23.86;53.19;101641.28;5010970;28;20053;-71
2023/09/28 07:03:43;;;;;;;14.90;2.00;;;;;;;24.38;51.75;101652.75;5027555;28;20519;-71
2023/09/28 07:06:09;;;;;;;7.30;1.17;;;;;;;23.38;53.41;101646.44;5025346;28;20496;-70
2023/09/28 07:08:34;;;;;;;13.93;2.13;;;;;;;23.06;54.86;101632.00;5022112;28;20493;-71
2023/09/28 07:11:00;;;;;;;10.95;1.70;;;;;;;23.66;53.88;101634.31;5007247;28;20026;-71
2023/09/28 07:13:25;;;;;;;13.38;1.75;;;;;;;23.23;54.77;101647.19;5009255;28;20172;-71
2023/09/28 07:15:51;;;;;;;15.35;1.80;;;;;;;23.65;53.71;101648.59;5013017;28;20405;-71
2023/09/28 07:18:16;;;;;;;10.32;1.50;;;;;;;23.65;54.57;101655.75;5027996;28;20116;-71
2023/09/28 07:20:42;;;;;;;9.65;1.65;;;;;;;23.80;52.95;101660.25;5011084;28;20025;-71
2023/09/28 07:23:07;;;;;;;16.17;1.77;;;;;;;24.04;52.95;101657.25;5012460;28;20061;-71
2023/09/28 07:25:32;;;;;;;7.90;1.35;;;;;;;24.92;49.95;101656.91;5027759;28;20072;-71
2023/09/28 07:27:58;;;;;;;18.65;2.88;;;;;;;24.65;50.89;101657.53;5028056;28;20058;-71
2023/09/28 07:30:23;;;;;;;17.00;2.17;;;;;;;24.11;51.93;101677.38;5012932;28;20493;-70
2023/09/28 07:32:49;;;;;;;14.88;2.03;;;;;;;24.80;50.94;101670.03;4991956;28;20026;-71
2023/09/28 07:35:16;;;;;;;11.73;1.65;;;;;;;25.09;50.18;101682.66;5017812;28;20030;-71
2023/09/28 07:37:43;;;;;;;16.85;1.65;;;;;;;26.01;47.94;101689.72;5022263;28;20109;-71
2023/09/28 07:40:12;;;;;;;13.77;2.20;;;;;;;24.63;50.46;101683.47;5011899;28;20500;-70
2023/09/28 07:42:43;;;;;;;14.13;2.65;;;;;;;25.40;49.41;101689.78;5029081;28;20108;-71
2023/09/28 07:45:11;;;;;;;11.60;1.45;;;;;;;24.89;50.22;101684.66;5012482;28;20034;-70
2023/09/28 07:47:36;;;;;;;13.85;1.52;;;;;;;24.47;51.91;101695.00;5014292;28;20056;-71
2023/09/28 07:50:03;;;;;;;10.77;2.17;;;;;;;24.02;52.73;101700.06;5030156;28;20072;-70
2023/09/28 07:52:29;;;;;;;9.25;1.88;;;;;;;24.87;49.90;101692.78;5028672;28;20033;-71
2023/09/28 07:54:55;;;;;;;15.63;2.13;;;;;;;24.69;51.07;101710.72;5021232;28;21723;-70
2023/09/28 07:57:20;;;;;;;12.20;2.20;;;;;;;24.09;52.15;101718.44;5016507;28;20022;-69
2023/09/28 07:59:46;;;;;;;10.68;1.67;;;;;;;24.11;52.36;101728.09;5012972;28;20030;-69
2023/09/28 08:02:11;;;;;;;8.23;1.55;;;;;;;24.64;51.56;101703.91;5029953;28;20446;-69
2023/09/28 08:04:37;;;;;;;9.20;1.70;;;;;;;25.18;50.13;101707.06;5026350;28;20030;-70
2023/09/28 08:07:03;;;;;;;7.63;1.55;;;;;;;25.35;48.87;101703.44;4994545;28;20025;-69
2023/09/28 08:09:28;;;;;;;9.95;1.77;;;;;;;25.12;48.96;101710.09;5027166;28;20018;-69
2023/09/28 08:11:55;;;;;;;12.82;1.90;;;;;;;24.62;51.34;101724.50;5019545;28;20041;-69
2023/09/28 08:14:21;;;;;;;8.05;1.55;;;;;;;25.31;48.91;101723.25;5030370;28;20029;-69
2023/09/28 08:16:47;;;;;;;13.50;1.70;;;;;;;26.47;47.24;101718.97;5030891;28;20760;-69
2023/09/28 08:19:13;;;;;;;13.38;1.60;;;;;;;25.60;48.16;101733.25;5010742;28;20106;-69
2023/09/28 08:21:39;;;;;;;12.93;1.80;;;;;;;25.24;48.87;101738.81;5026471;28;20116;-68
2023/09/28 08:24:05;;;;;;;11.27;1.90;;;;;;;24.96;49.69;101730.63;5005289;28;20050;-69
2023/09/28 08:26:31;;;;;;;16.42;2.78;;;;;;;24.15;51.94;101743.00;4991454;28;20442;-69
2023/09/28 08:28:58;;;;;;;17.00;3.40;;;;;;;24.30;51.52;101735.13;4990801;28;20027;-69
2023/09/28 08:31:24;;;;;;;12.73;1.60;;;;;;;25.56;48.91;101732.56;4992040;28;20026;-70
2023/09/28 08:33:51;;;;;;;16.02;2.05;;;;;;;24.96;49.91;101738.66;4988924;28;20517;-69
2023/09/28 08:36:16;;;;;;;14.98;2.05;;;;;;;24.21;51.11;101734.66;5011500;28;20050;-69
2023/09/28 08:38:42;;;;;;;12.55;1.55;;;;;;;24.87;49.15;101735.56;5009080;28;20021;-69
2023/09/28 08:41:09;;;;;;;10.68;1.90;;;;;;;25.54;48.64;101740.69;4994077;28;20021;-68
2023/09/28 08:43:43;;;;;;;8.43;1.55;;;;;;;24.79;48.75;101732.44;5007118;28;20025;-69
2023/09/28 08:46:11;;;;;;;12.98;2.10;;;;;;;24.59;50.00;101733.50;4983833;28;20033;-68
2023/09/28 08:48:43;;;;;;;13.95;1.83;;;;;;;24.81;49.73;101749.28;4988693;28;20044;-69
2023/09/28 08:51:10;;;;;;;8.65;1.95;;;;;;;25.33;48.26;101747.28;5005571;28;20108;-69
2023/09/28 08:53:41;;;;;;;9.48;1.60;;;;;;;25.53;47.90;101749.66;5006568;28;20040;-70
2023/09/28 08:56:07;;;;;;;18.20;2.30;;;;;;;26.18;46.43;101761.84;5005139;28;20034;-70
2023/09/28 08:58:37;;;;;;;11.27;1.60;;;;;;;25.78;47.24;101758.91;4990212;28;20032;-70
2023/09/28 09:01:04;;;;;;;15.90;2.00;;;;;;;26.72;45.84;101754.97;4999188;28;20034;-70
2023/09/28 09:03:32;;;;;;;10.38;1.80;;;;;;;26.75;45.62;101758.34;5007802;28;20040;-70
2023/09/28 09:05:57;;;;;;;9.77;1.77;;;;;;;26.47;45.38;101761.84;5008699;28;20390;-70
2023/09/28 09:08:26;;;;;;;13.25;2.25;;;;;;;26.07;46.59;101764.34;4993710;28;20025;-70
2023/09/28 09:10:52;;;;;;;10.35;1.85;;;;;;;26.67;45.44;101757.94;5005415;28;20479;-72
2023/09/28 09:13:18;;;;;;;10.75;1.92;;;;;;;25.39;46.94;101765.66;5006069;28;20033;-70
2023/09/28 09:15:44;;;;;;;10.82;1.95;;;;;;;27.12;43.80;101767.63;4997146;28;20087;-74
2023/09/28 09:18:16;;;;;;;9.60;1.48;;;;;;;27.19;44.41;101764.44;4991389;28;20030;-71
2023/09/28 09:20:42;;;;;;;9.80;1.63;;;;;;;26.61;46.06;101757.47;4991210;28;20393;-71
2023/09/28 09:23:11;;;;;;;13.15;2.28;;;;;;;25.97;47.00;101763.16;5010259;28;20120;-71
2023/09/28 09:25:41;;;;;;;7.85;1.42;;;;;;;27.59;43.61;101751.06;5009147;28;20088;-71
2023/09/28 09:28:07;;;;;;;13.02;1.95;;;;;;;26.79;45.18;101740.25;4998924;28;20029;-71
2023/09/28 09:30:36;;;;;;;8.00;1.30;;;;;;;25.72;47.27;101743.22;5026895;28;20396;-70
2023/09/28 09:33:04;;;;;;;21.08;2.38;;;;;;;26.04;45.83;101756.50;5007649;28;20394;-71
2023/09/28 09:35:31;;;;;;;12.95;1.60;;;;;;;26.49;45.80;101759.09;5016528;28;20033;-70
2023/09/28 09:37:56;;;;;;;11.68;1.88;;;;;;;25.53;46.72;101765.72;5024712;28;20029;-70
2023/09/28 09:40:21;;;;;;;11.90;1.40;;;;;;;26.36;45.72;101764.34;5016310;28;20021;-71
2023/09/28 09:42:47;;;;;;;15.52;1.95;;;;;;;26.62;44.71;101761.88;5025724;28;20461;-71
2023/09/28 09:45:12;;;;;;;7.22;1.45;;;;;;;26.03;45.53;101752.09;5012268;28;20123;-71
2023/09/28 09:47:48;;;;;;;11.73;1.63;;;;;;;27.41;43.19;101731.69;5029883;28;20393;-71
2023/09/28 09:50:16;;;;;;;6.00;1.30;;;;;;;26.80;45.10;101741.94;5029061;28;20025;-71
2023/09/28 09:52:46;;;;;;;10.60;1.27;;;;;;;27.17;44.03;101742.22;5029636;28;20021;-71
2023/09/28 09:55:12;;;;;;;12.95;1.90;;;;;;;26.02;46.76;101747.69;5000988;28;20076;-71
2023/09/28 09:57:37;;;;;;;13.60;1.92;;;;;;;27.01;44.77;101749.53;5023576;28;20731;-70
2023/09/28 10:00:07;;;;;;;9.25;2.13;;;;;;;27.61;43.52;101742.91;5006978;28;20488;-71
2023/09/28 10:02:41;;;;;;;26.77;1.90;;;;;;;27.55;43.74;101738.81;5007996;28;20037;-71
2023/09/28 10:05:09;;;;;;;14.82;1.73;;;;;;;27.57;43.44;101753.00;4991652;28;20042;-71
2023/09/28 10:07:37;;;;;;;14.65;1.75;;;;;;;26.59;45.15;101763.75;5010291;28;20032;-71
2023/09/28 10:10:03;;;;;;;14.32;1.75;;;;;;;27.74;43.15;101756.38;4991469;28;20026;-70
2023/09/28 10:12:30;;;;;;;7.70;1.48;;;;;;;27.05;43.83;101762.69;4992751;28;20119;-71
2023/09/28 10:14:58;;;;;;;6.05;1.55;;;;;;;27.28;44.45;101754.06;4992002;28;20036;-71
2023/09/28 10:17:28;;;;;;;12.60;1.52;;;;;;;26.35;45.74;101759.94;4991950;28;20092;-71
2023/09/28 10:19:57;;;;;;;12.20;2.05;;;;;;;27.24;44.50;101762.34;4992012;28;20022;-71
2023/09/28 10:22:22;;;;;;;14.93;2.58;;;;;;;28.31;42.20;101768.56;4992464;28;20463;-71
2023/09/28 10:24:48;;;;;;;12.75;2.03;;;;;;;26.80;45.01;101778.63;5008190;28;20157;-71
2023/09/28 10:27:14;;;;;;;3.47;1.50;;;;;;;27.75;43.29;101780.44;5009843;28;20045;-71
2023/09/28 10:29:41;;;;;;;14.70;1.98;;;;;;;26.38;45.03;101789.25;5010247;28;20034;-71
2023/09/28 10:32:28;;;;;;;16.35;2.35;;;;;;;26.31;45.46;101777.19;5007432;28;20022;-71
2023/09/28 10:35:22;;;;;;;10.07;2.25;;;;;;;26.93;44.92;101768.84;4991902;28;20036;-71
2023/09/28 10:38:20;;;;;;;7.78;1.35;;;;;;;27.26;44.26;101770.28;4991992;28;20036;-71
2023/09/28 10:41:01;;;;;;;15.55;2.88;;;;;;;26.90;44.92;101771.69;4992177;28;20030;-70
2023/09/28 10:43:40;;;;;;;12.98;2.42;;;;;;;26.01;45.59;101786.13;4992279;28;20572;-71
2023/09/28 10:46:07;;;;;;;19.02;2.72;;;;;;;25.79;46.68;101792.75;4991352;28;20456;-71
2023/09/28 10:48:46;;;;;;;11.65;2.08;;;;;;;27.73;43.19;101784.19;4992177;28;20120;-71
2023/09/28 10:51:13;;;;;;;7.72;2.13;;;;;;;27.37;43.70;101783.03;5008915;28;20036;-71
2023/09/28 10:53:39;;;;;;;15.45;2.47;;;;;;;25.27;47.49;101795.78;5008423;28;20022;-71
2023/09/28 10:56:10;;;;;;;10.65;3.35;;;;;;;25.57;46.47;101793.16;5009344;28;20029;-71
2023/09/28 10:58:36;;;;;;;7.47;1.80;;;;;;;27.10;44.61;101786.50;4991502;28;20026;-70
2023/09/28 11:01:06;;;;;;;7.80;1.35;;;;;;;27.03;44.14;101790.56;4991744;28;20030;-70
2023/09/28 11:03:33;;;;;;;9.70;1.58;;;;;;;27.12;43.51;101791.78;4992244;28;20032;-71
2023/09/28 11:06:00;;;;;;;13.77;1.45;;;;;;;26.06;45.82;101800.09;4990976;28;20032;-71
2023/09/28 11:08:25;;;;;;;11.80;2.10;;;;;;;26.36;45.51;101799.19;4992384;28;20034;-70
2023/09/28 11:10:58;;;;;;;18.48;2.35;;;;;;;25.84;46.07;101801.38;4991832;28;20030;-71
2023/09/28 11:13:24;;;;;;;8.10;2.05;;;;;;;25.91;46.52;101802.75;4992617;28;20038;-71
2023/09/28 11:15:51;;;;;;;10.43;1.45;;;;;;;26.06;45.92;101810.81;4996061;28;20435;-70
2023/09/28 11:18:18;;;;;;;8.98;1.52;;;;;;;27.01;43.89;101803.19;4995647;28;20025;-71
2023/09/28 11:20:43;;;;;;;8.38;1.30;;;;;;;25.61;46.52;101812.56;5011471;28;20029;-70
2023/09/28 11:23:11;;;;;;;13.23;1.55;;;;;;;26.23;45.05;101805.31;5012780;28;20046;-71